createdAt,value
2018-08-28T00:03:00.771Z,18.90
2018-08-28T00:08:29.987Z,18.90
2018-08-28T00:13:59.192Z,18.90
2018-08-28T00:19:29.508Z,18.90
2018-08-28T00:24:58.726Z,18.80
2018-08-28T00:30:28.082Z,18.80
2018-08-28T00:35:57.284Z,18.70
2018-08-28T00:41:26.531Z,18.70
2018-08-28T00:46:55.772Z,18.70
2018-08-28T00:52:25.061Z,18.70
2018-08-28T00:57:54.219Z,18.70
2018-08-28T01:03:23.423Z,18.70
2018-08-28T01:08:52.624Z,18.60
2018-08-28T01:14:21.903Z,18.60
2018-08-28T01:19:51.092Z,18.50
2018-08-28T01:25:20.356Z,18.40
2018-08-28T01:30:49.617Z,18.30
2018-08-28T01:36:18.790Z,18.30
2018-08-28T01:41:48.081Z,18.20
2018-08-28T01:47:17.328Z,18.10
2018-08-28T01:52:46.528Z,18.10
2018-08-28T01:58:16.023Z,18.00
2018-08-28T02:03:45.284Z,17.90
2018-08-28T02:09:15.200Z,17.80
2018-08-28T02:14:44.468Z,17.80
2018-08-28T02:20:13.758Z,17.70
2018-08-28T02:25:43.019Z,17.50
2018-08-28T02:31:12.976Z,17.50
2018-08-28T02:36:42.300Z,17.40
2018-08-28T02:42:11.533Z,17.30
2018-08-28T02:47:43.656Z,17.30
2018-08-28T02:53:12.857Z,17.20
2018-08-28T02:58:42.061Z,17.20
2018-08-28T03:04:11.252Z,17.10
2018-08-28T03:09:40.462Z,17.10
2018-08-28T03:15:09.947Z,17.00
2018-08-28T03:20:39.405Z,16.90
2018-08-28T03:26:09.172Z,16.80
2018-08-28T03:31:38.401Z,16.70
2018-08-28T03:37:07.709Z,16.70
2018-08-28T03:42:37.058Z,16.60
2018-08-28T03:48:06.611Z,16.50
2018-08-28T03:53:35.860Z,16.40
2018-08-28T03:59:05.535Z,16.30
2018-08-28T04:04:34.856Z,16.20
2018-08-28T04:10:04.184Z,16.10
2018-08-28T04:15:34.028Z,16.00
2018-08-28T04:21:03.989Z,15.90
2018-08-28T04:26:33.339Z,15.90
2018-08-28T04:32:02.625Z,15.80
2018-08-28T04:37:31.846Z,15.80
2018-08-28T04:43:01.076Z,15.80
2018-08-28T04:48:30.380Z,15.80
2018-08-28T04:54:00.351Z,15.90
2018-08-28T04:59:29.595Z,15.90
2018-08-28T05:04:58.908Z,16.00
2018-08-28T05:10:28.091Z,16.00
2018-08-28T05:15:57.359Z,16.10
2018-08-28T05:21:26.526Z,16.20
2018-08-28T05:26:55.792Z,16.30
2018-08-28T05:32:25.041Z,16.40
2018-08-28T05:37:54.301Z,16.60
2018-08-28T05:43:23.509Z,16.80
2018-08-28T05:48:56.450Z,17.00
2018-08-28T05:54:25.691Z,17.20
2018-08-28T05:59:54.931Z,17.30
2018-08-28T06:05:24.185Z,17.50
2018-08-28T06:10:53.456Z,17.70
2018-08-28T06:16:22.664Z,18.00
2018-08-28T06:21:51.884Z,18.20
2018-08-28T06:27:21.076Z,18.40
2018-08-28T06:32:50.304Z,18.60
2018-08-28T06:38:19.524Z,18.80
2018-08-28T06:43:48.790Z,18.90
2018-08-28T06:49:18.019Z,19.00
2018-08-28T06:54:47.257Z,19.20
2018-08-28T07:00:16.500Z,19.40
2018-08-28T07:05:45.698Z,19.50
2018-08-28T07:11:14.923Z,19.60
2018-08-28T07:16:44.148Z,19.60
2018-08-28T07:22:13.381Z,19.60
2018-08-28T07:27:42.695Z,19.60
2018-08-28T07:33:11.897Z,19.90
2018-08-28T07:38:41.137Z,20.20
2018-08-28T07:44:10.383Z,20.30
2018-08-28T07:49:39.696Z,20.40
2018-08-28T07:55:09.096Z,20.70
2018-08-28T08:00:38.417Z,21.10
2018-08-28T08:06:07.737Z,21.30
2018-08-28T08:11:37.196Z,21.50
2018-08-28T08:17:06.705Z,21.60
2018-08-28T08:22:35.948Z,21.60
2018-08-28T08:28:05.461Z,21.90
2018-08-28T08:33:34.666Z,22.10
2018-08-28T08:39:05.100Z,22.20
2018-08-28T08:44:34.358Z,22.30
2018-08-28T08:50:03.637Z,22.50
2018-08-28T08:55:32.868Z,22.60
2018-08-28T09:01:02.086Z,22.70
2018-08-28T09:06:31.334Z,23.00
2018-08-28T09:12:00.684Z,23.20
2018-08-28T09:17:29.941Z,23.30
2018-08-28T09:22:59.147Z,23.50
2018-08-28T09:28:28.395Z,23.60
2018-08-28T09:33:57.629Z,23.80
2018-08-28T09:39:26.912Z,24.00
2018-08-28T09:44:56.113Z,24.00
2018-08-28T09:50:25.410Z,24.00
2018-08-28T09:55:54.539Z,24.00
2018-08-28T10:01:29.083Z,24.00
2018-08-28T10:06:58.328Z,24.30
2018-08-28T10:12:27.496Z,24.50
2018-08-28T10:17:56.719Z,24.30
2018-08-28T10:23:26.008Z,24.50
2018-08-28T10:28:55.227Z,24.50
2018-08-28T10:34:24.404Z,24.70
2018-08-28T10:39:53.619Z,25.00
2018-08-28T10:45:22.862Z,25.20
2018-08-28T10:50:52.098Z,25.40
2018-08-28T10:56:21.339Z,25.30
2018-08-28T11:01:50.529Z,25.30
2018-08-28T11:07:19.764Z,25.30
2018-08-28T11:12:49.012Z,25.60
2018-08-28T11:18:23.316Z,25.80
2018-08-28T11:23:52.514Z,25.90
2018-08-28T11:29:21.703Z,25.70
2018-08-28T11:34:50.948Z,25.70
2018-08-28T11:40:20.200Z,26.20
2018-08-28T11:45:49.468Z,26.50
2018-08-28T11:51:18.697Z,26.70
2018-08-28T11:56:47.870Z,26.60
2018-08-28T12:02:17.116Z,26.10
2018-08-28T12:07:46.500Z,25.90
2018-08-28T12:13:15.727Z,25.70
2018-08-28T12:18:44.985Z,25.50
2018-08-28T12:24:14.256Z,25.60
2018-08-28T12:29:43.518Z,25.90
2018-08-28T12:35:12.685Z,26.10
2018-08-28T12:40:41.952Z,26.20
2018-08-28T12:46:11.265Z,26.10
2018-08-28T12:51:41.644Z,26.10
2018-08-28T12:57:10.981Z,26.50
2018-08-28T13:02:40.251Z,26.70
2018-08-28T13:08:09.648Z,26.90
2018-08-28T13:13:38.947Z,27.00
2018-08-28T13:19:08.424Z,26.80
2018-08-28T13:24:37.736Z,26.30
2018-08-28T13:30:07.173Z,26.10
2018-08-28T13:35:36.476Z,26.20
2018-08-28T13:41:05.887Z,26.00
2018-08-28T13:46:35.197Z,26.30
2018-08-28T13:52:04.529Z,26.90
2018-08-28T13:57:33.828Z,27.40
2018-08-28T14:03:04.296Z,28.20
2018-08-28T14:08:33.619Z,29.70
2018-08-28T14:14:03.064Z,30.70
2018-08-28T14:19:32.163Z,31.60
2018-08-28T14:25:01.383Z,32.60
2018-08-28T14:30:30.608Z,32.00
2018-08-28T14:35:59.875Z,33.20
2018-08-28T14:41:29.143Z,33.60
2018-08-28T14:46:58.367Z,34.00
2018-08-28T14:52:27.632Z,34.70
2018-08-28T14:57:56.900Z,34.80
2018-08-28T15:03:26.368Z,34.70
2018-08-28T15:08:55.614Z,32.00
2018-08-28T15:14:24.936Z,30.10
2018-08-28T15:19:54.260Z,29.10
2018-08-28T15:25:23.501Z,28.30
2018-08-28T15:30:52.764Z,27.90
2018-08-28T15:36:22.007Z,27.90
2018-08-28T15:41:51.251Z,27.70
2018-08-28T15:47:20.545Z,27.30
2018-08-28T15:52:50.079Z,26.80
2018-08-28T15:58:19.296Z,26.50
2018-08-28T16:03:48.543Z,26.10
2018-08-28T16:09:17.772Z,25.70
2018-08-28T16:14:47.019Z,25.60
2018-08-28T16:20:16.284Z,25.40
2018-08-28T16:25:45.500Z,25.30
2018-08-28T16:31:14.828Z,25.20
2018-08-28T16:36:44.176Z,25.20
2018-08-28T16:42:13.553Z,25.00
2018-08-28T16:47:42.865Z,24.70
2018-08-28T16:53:13.563Z,24.60
2018-08-28T16:58:46.917Z,24.40
2018-08-28T17:04:16.711Z,24.20
2018-08-28T17:09:46.206Z,24.10
2018-08-28T17:15:15.471Z,24.00
2018-08-28T17:20:44.848Z,23.80
2018-08-28T17:26:14.262Z,23.70
2018-08-28T17:31:43.707Z,23.60
2018-08-28T17:37:13.096Z,23.50
2018-08-28T17:42:42.402Z,23.30
2018-08-28T17:48:11.683Z,23.20
2018-08-28T17:53:40.939Z,23.00
2018-08-28T17:59:10.239Z,22.90
2018-08-28T18:04:39.551Z,22.70
2018-08-28T18:10:08.871Z,22.60
2018-08-28T18:15:38.590Z,22.50
2018-08-28T18:21:07.979Z,22.40
2018-08-28T18:26:37.313Z,22.20
2018-08-28T18:32:06.776Z,22.10
2018-08-28T18:37:36.311Z,21.90
2018-08-28T18:43:05.752Z,21.80
2018-08-28T18:48:35.153Z,21.60
2018-08-28T18:54:04.685Z,21.50
2018-08-28T18:59:34.362Z,21.40
2018-08-28T19:05:05.576Z,21.30
2018-08-28T19:10:35.837Z,21.20
2018-08-28T19:16:05.170Z,21.10
2018-08-28T19:21:34.561Z,21.00
2018-08-28T19:27:05.140Z,20.90
2018-08-28T19:32:35.918Z,20.80
2018-08-28T19:38:05.571Z,20.70
2018-08-28T19:43:35.215Z,20.60
2018-08-28T19:49:04.509Z,20.50
2018-08-28T19:54:34.054Z,20.40
2018-08-28T20:00:04.329Z,20.30
2018-08-28T20:05:33.673Z,20.20
2018-08-28T20:11:03.301Z,20.10
2018-08-28T20:16:32.941Z,20.00
2018-08-28T20:22:02.308Z,19.80
2018-08-28T20:27:31.552Z,19.70
2018-08-28T20:33:01.341Z,19.60
2018-08-28T20:38:30.682Z,19.40
2018-08-28T20:43:59.891Z,19.30
2018-08-28T20:49:29.197Z,19.10
2018-08-28T20:54:59.528Z,19.00
2018-08-28T21:00:31.168Z,18.80
2018-08-28T21:06:00.432Z,18.70
2018-08-28T21:11:29.651Z,18.50
2018-08-28T21:17:00.203Z,18.30
2018-08-28T21:22:29.877Z,18.20
2018-08-28T21:27:59.244Z,18.10
2018-08-28T21:33:28.575Z,18.00
2018-08-28T21:38:57.887Z,17.90
2018-08-28T21:44:27.172Z,17.80
2018-08-28T21:49:56.427Z,17.70
2018-08-28T21:55:26.220Z,17.70
2018-08-28T22:01:00.739Z,17.60
2018-08-28T22:06:35.388Z,17.50
2018-08-28T22:12:05.013Z,17.50
2018-08-28T22:17:34.362Z,17.50
2018-08-28T22:23:03.679Z,17.50
2018-08-28T22:28:32.916Z,17.40
2018-08-28T22:34:02.259Z,17.30
2018-08-28T22:39:31.635Z,17.20
2018-08-28T22:45:05.901Z,17.10
2018-08-28T22:50:35.497Z,17.00
2018-08-28T22:56:05.350Z,16.90
2018-08-28T23:01:34.692Z,16.80
2018-08-28T23:07:03.983Z,16.80
2018-08-28T23:12:33.475Z,16.70
2018-08-28T23:18:02.680Z,16.60
2018-08-28T23:23:31.981Z,16.50
2018-08-28T23:29:01.220Z,16.40
2018-08-28T23:34:30.468Z,16.40
2018-08-28T23:39:59.671Z,16.30
2018-08-28T23:45:28.953Z,16.20
2018-08-28T23:50:58.147Z,16.10
2018-08-28T23:56:27.468Z,16.10
